createdAt,value
2018-11-12T00:24:55.799Z,58
2018-11-12T00:25:45.346Z,58
2018-11-12T00:26:35.432Z,58
2018-11-12T00:27:25.462Z,58
2018-11-12T00:28:15.239Z,58
2018-11-12T00:29:06.179Z,58
2018-11-12T00:29:56.425Z,58
2018-11-12T00:30:45.696Z,58
2018-11-12T00:31:36.046Z,58
2018-11-12T00:32:25.743Z,57.9
2018-11-12T00:33:15.411Z,57.9
2018-11-12T00:34:05.253Z,57.9
2018-11-12T00:34:55.821Z,57.9
2018-11-12T00:35:45.580Z,57.9
2018-11-12T00:36:35.629Z,57.9
2018-11-12T00:37:25.799Z,57.9
2018-11-12T00:38:15.746Z,57.9
2018-11-12T00:39:06.564Z,57.9
2018-11-12T00:39:57.160Z,57.9
2018-11-12T00:40:45.628Z,57.9
2018-11-12T00:41:36.586Z,57.9
2018-11-12T00:42:25.964Z,57.9
2018-11-12T00:43:17.170Z,57.9
2018-11-12T00:44:06.165Z,57.9
2018-11-12T00:44:55.831Z,57.8
2018-11-12T00:45:46.771Z,57.8
2018-11-12T00:46:36.543Z,57.8
2018-11-12T00:47:27.255Z,57.8
2018-11-12T00:48:16.657Z,57.8
2018-11-12T00:49:06.610Z,57.8
2018-11-12T00:50:46.867Z,57.8
2018-11-12T00:58:17.162Z,57.7
2018-11-12T00:59:06.979Z,57.7
2018-11-12T00:59:57.271Z,57.7
2018-11-12T01:00:48.974Z,57.7
2018-11-12T01:01:37.237Z,57.7
2018-11-12T01:02:27.852Z,57.7
2018-11-12T01:03:17.069Z,57.7
2018-11-12T01:04:08.363Z,57.6
2018-11-12T01:04:57.487Z,57.7
2018-11-12T01:05:48.526Z,57.6
2018-11-12T01:06:38.052Z,57.6
2018-11-12T01:07:28.399Z,57.6
2018-11-12T01:08:17.881Z,57.6
2018-11-12T01:09:07.932Z,57.6
2018-11-12T01:09:57.905Z,57.6
2018-11-12T01:10:48.171Z,57.6
2018-11-12T01:11:38.379Z,57.6
2018-11-12T01:12:27.894Z,57.6
2018-11-12T01:13:18.333Z,57.6
2018-11-12T01:14:08.068Z,57.6
2018-11-12T01:14:58.074Z,57.6
2018-11-12T01:15:48.509Z,57.6
2018-11-12T01:16:38.264Z,57.6
2018-11-12T01:17:28.872Z,57.5
2018-11-12T01:18:18.339Z,57.5
2018-11-12T01:19:08.490Z,57.5
2018-11-12T01:19:59.249Z,57.5
2018-11-12T01:20:49.403Z,57.5
2018-11-12T01:21:39.074Z,57.5
2018-11-12T01:22:29.208Z,57.5
2018-11-12T01:23:18.786Z,57.4
2018-11-12T01:24:08.256Z,57.4
2018-11-12T01:24:59.385Z,57.4
2018-11-12T01:25:49.476Z,57.4
2018-11-12T01:26:39.264Z,57.4
2018-11-12T01:27:29.108Z,57.4
2018-11-12T01:28:19.254Z,57.4
2018-11-12T01:29:10.156Z,57.4
2018-11-12T01:29:59.955Z,57.4
2018-11-12T01:30:50.298Z,57.4
2018-11-12T01:31:39.850Z,57.4
2018-11-12T01:32:30.366Z,57.4
2018-11-12T01:33:20.497Z,57.4
2018-11-12T01:34:10.220Z,57.4
2018-11-12T01:35:00.608Z,57.4
2018-11-12T01:35:49.777Z,57.4
2018-11-12T01:36:40.677Z,57.4
2018-11-12T01:37:30.793Z,57.3
2018-11-12T01:38:20.820Z,57.3
2018-11-12T01:39:10.315Z,57.3
2018-11-12T01:40:00.103Z,57.3
2018-11-12T01:40:50.839Z,57.3
2018-11-12T01:41:41.796Z,57.3
2018-11-12T01:42:30.578Z,57.3
2018-11-12T01:43:20.876Z,57.3
2018-11-12T01:44:11.530Z,57.3
2018-11-12T01:45:00.547Z,57.3
2018-11-12T01:45:50.785Z,57.3
2018-11-12T01:46:40.557Z,57.3
2018-11-12T01:47:31.830Z,57.3
2018-11-12T01:48:20.778Z,57.3
2018-11-12T01:49:11.196Z,57.3
2018-11-12T01:50:01.139Z,57.2
2018-11-12T01:50:51.625Z,57.2
2018-11-12T01:51:41.605Z,57.2
2018-11-12T01:52:31.515Z,57.2
2018-11-12T01:53:21.322Z,57.2
2018-11-12T01:54:11.471Z,57.2
2018-11-12T01:55:01.465Z,57.2
2018-11-12T01:55:51.965Z,57.2
2018-11-12T01:56:41.182Z,57.1
2018-11-12T01:57:32.337Z,57.1
2018-11-12T01:58:21.954Z,57.1
2018-11-12T01:59:11.556Z,57.1
2018-11-12T02:00:01.939Z,57.1
2018-11-12T02:00:52.251Z,57.1
2018-11-12T02:01:42.870Z,57.1
2018-11-12T02:02:32.301Z,57.1
2018-11-12T02:03:22.591Z,57.1
2018-11-12T02:04:12.690Z,57.1
2018-11-12T02:05:02.982Z,57.1
2018-11-12T02:05:52.851Z,57.1
2018-11-12T02:06:42.831Z,57.1
2018-11-12T02:07:32.604Z,57.1
2018-11-12T02:08:22.491Z,57
2018-11-12T02:09:12.596Z,57.1
2018-11-12T02:10:02.921Z,57
2018-11-12T02:10:52.504Z,57
2018-11-12T02:11:42.747Z,57
2018-11-12T02:12:32.743Z,57
2018-11-12T02:13:23.324Z,57
2018-11-12T02:14:12.524Z,56.9
2018-11-12T02:15:02.722Z,56.9
2018-11-12T02:15:52.363Z,56.9
2018-11-12T02:16:43.878Z,56.9
2018-11-12T02:17:33.600Z,56.9
2018-11-12T02:18:22.511Z,56.9
2018-11-12T02:19:14.013Z,56.9
2018-11-12T02:20:02.958Z,56.9
2018-11-12T02:20:53.622Z,56.9
2018-11-12T02:21:44.048Z,56.9
2018-11-12T02:22:33.423Z,56.9
2018-11-12T02:23:23.530Z,56.9
2018-11-12T02:24:13.583Z,56.9
2018-11-12T02:25:03.435Z,56.9
2018-11-12T02:25:53.748Z,56.9
2018-11-12T02:26:43.840Z,56.8
2018-11-12T02:27:34.413Z,56.8
2018-11-12T02:28:24.136Z,56.8
2018-11-12T02:29:14.300Z,56.8
2018-11-12T02:30:04.273Z,56.8
2018-11-12T02:30:53.615Z,56.8
2018-11-12T02:31:44.377Z,56.8
2018-11-12T02:32:33.853Z,56.8
2018-11-12T02:33:25.186Z,56.8
2018-11-12T02:34:13.577Z,56.8
2018-11-12T02:35:04.627Z,56.8
2018-11-12T02:35:54.677Z,56.8
2018-11-12T02:36:44.729Z,56.8
2018-11-12T02:37:35.894Z,56.8
2018-11-12T02:38:24.854Z,56.8
2018-11-12T02:39:15.209Z,56.7
2018-11-12T02:40:05.287Z,56.8
2018-11-12T02:40:54.771Z,56.7
2018-11-12T02:41:45.154Z,56.7
2018-11-12T02:42:34.906Z,56.7
2018-11-12T02:43:24.612Z,56.7
2018-11-12T02:44:14.989Z,56.7
2018-11-12T02:45:05.861Z,56.7
2018-11-12T02:45:55.086Z,56.6
2018-11-12T02:46:44.860Z,56.6
2018-11-12T02:47:35.218Z,56.6
2018-11-12T02:48:25.356Z,56.6
2018-11-12T02:49:16.151Z,56.6
2018-11-12T02:50:05.478Z,56.6
2018-11-12T02:50:55.539Z,56.6
2018-11-12T02:51:45.941Z,56.6
2018-11-12T02:52:35.855Z,56.6
2018-11-12T02:53:25.441Z,56.6
2018-11-12T02:54:15.683Z,56.6
2018-11-12T02:55:06.070Z,56.6
2018-11-12T02:55:55.813Z,56.6
2018-11-12T02:56:45.653Z,56.6
2018-11-12T02:57:36.921Z,56.6
2018-11-12T02:58:26.536Z,56.6
2018-11-12T02:59:16.107Z,56.5
2018-11-12T03:00:06.411Z,56.5
2018-11-12T03:00:55.895Z,56.5
2018-11-12T03:01:46.926Z,56.5
2018-11-12T03:02:36.838Z,56.5
2018-11-12T03:03:26.678Z,56.5
2018-11-12T03:04:15.835Z,56.4
2018-11-12T03:05:06.772Z,56.4
2018-11-12T03:05:56.523Z,56.4
2018-11-12T03:06:46.957Z,56.4
2018-11-12T03:07:36.558Z,56.4
2018-11-12T03:08:27.279Z,56.4
2018-11-12T03:09:17.334Z,56.4
2018-11-12T03:10:07.074Z,56.4
2018-11-12T03:10:56.948Z,56.4
2018-11-12T03:11:47.259Z,56.4
2018-11-12T03:12:37.077Z,56.4
2018-11-12T03:13:26.260Z,56.4
2018-11-12T03:14:17.130Z,56.4
2018-11-12T03:15:07.482Z,56.4
2018-11-12T03:15:58.140Z,56.4
2018-11-12T03:16:47.382Z,56.3
2018-11-12T03:17:37.725Z,56.3
2018-11-12T03:18:27.125Z,56.3
2018-11-12T03:19:18.017Z,56.3
2018-11-12T03:20:07.237Z,56.3
2018-11-12T03:20:58.492Z,56.3
2018-11-12T03:21:47.914Z,56.3
2018-11-12T03:22:38.006Z,56.3
2018-11-12T03:23:27.921Z,56.3
2018-11-12T03:24:17.072Z,56.3
2018-11-12T03:25:08.471Z,56.3
2018-11-12T03:25:58.506Z,56.3
2018-11-12T03:26:48.667Z,56.3
2018-11-12T03:27:39.211Z,56.3
2018-11-12T03:28:28.766Z,56.3
2018-11-12T03:29:18.333Z,56.3
2018-11-12T03:30:08.896Z,56.3
2018-11-12T03:30:58.611Z,56.3
2018-11-12T03:31:48.966Z,56.2
2018-11-12T03:32:38.726Z,56.2
2018-11-12T03:33:28.113Z,56.2
2018-11-12T03:34:19.156Z,56.2
2018-11-12T03:35:09.147Z,56.2
2018-11-12T03:35:58.996Z,56.2
2018-11-12T03:36:49.326Z,56.2
2018-11-12T03:37:38.798Z,56.1
2018-11-12T03:38:28.361Z,56.1
2018-11-12T03:39:19.438Z,56.1
2018-11-12T03:40:08.005Z,56.1
2018-11-12T03:40:59.288Z,56.1
2018-11-12T03:41:49.694Z,56.1
2018-11-12T03:42:39.173Z,56.1
2018-11-12T03:43:29.508Z,56.1
2018-11-12T03:44:19.282Z,56.1
2018-11-12T03:45:09.621Z,56.1
2018-11-12T03:45:59.656Z,56.1
2018-11-12T03:46:50.032Z,56.1
2018-11-12T03:47:40.070Z,56.1
2018-11-12T03:48:30.163Z,56
2018-11-12T03:49:19.328Z,56
2018-11-12T03:50:10.210Z,56
2018-11-12T03:51:00.315Z,56
2018-11-12T03:51:50.395Z,56
2018-11-12T03:52:39.960Z,56
2018-11-12T03:53:30.285Z,56
2018-11-12T03:54:20.085Z,56
2018-11-12T03:55:10.046Z,56
2018-11-12T03:56:00.127Z,55.9
2018-11-12T03:56:51.023Z,55.9
2018-11-12T03:57:40.500Z,55.9
2018-11-12T03:58:30.292Z,55.9
2018-11-12T03:59:20.623Z,55.9
2018-11-12T04:00:10.816Z,55.9
2018-11-12T04:00:59.780Z,55.9
2018-11-12T04:01:51.083Z,55.9
2018-11-12T04:02:41.180Z,55.9
2018-11-12T04:03:30.387Z,55.9
2018-11-12T04:04:21.042Z,55.9
2018-11-12T04:05:10.784Z,55.9
2018-11-12T04:06:00.795Z,55.9
2018-11-12T04:06:51.757Z,55.9
2018-11-12T04:07:41.572Z,55.8
2018-11-12T04:08:31.284Z,55.8
2018-11-12T04:09:21.064Z,55.8
2018-11-12T04:10:11.237Z,55.8
2018-11-12T04:11:00.669Z,55.8
2018-11-12T04:11:50.944Z,55.8
2018-11-12T04:12:41.949Z,55.8
2018-11-12T04:13:31.913Z,55.8
2018-11-12T04:14:21.725Z,55.8
2018-11-12T04:15:11.744Z,55.8
2018-11-12T04:16:02.654Z,55.8
2018-11-12T04:16:51.899Z,55.8
2018-11-12T04:17:42.216Z,55.8
2018-11-12T04:18:32.016Z,55.7
2018-11-12T04:19:21.761Z,55.8
2018-11-12T04:20:12.146Z,55.8
2018-11-12T04:21:01.947Z,55.7
2018-11-12T04:21:52.526Z,55.7
2018-11-12T04:22:42.407Z,55.7
2018-11-12T04:23:32.329Z,55.7
2018-11-12T04:24:22.412Z,55.7
2018-11-12T04:25:13.608Z,55.7
2018-11-12T04:26:01.966Z,55.7
2018-11-12T04:26:52.596Z,55.6
2018-11-12T04:27:42.652Z,55.6
2018-11-12T04:28:33.278Z,55.6
2018-11-12T04:29:22.496Z,55.6
2018-11-12T04:30:12.913Z,55.6
2018-11-12T04:31:03.170Z,55.6
2018-11-12T04:31:53.220Z,55.6
2018-11-12T04:32:43.275Z,55.6
2018-11-12T04:33:32.958Z,55.6
2018-11-12T04:34:23.233Z,55.6
2018-11-12T04:35:12.955Z,55.6
2018-11-12T04:36:02.363Z,55.6
2018-11-12T04:36:53.579Z,55.6
2018-11-12T04:54:12.002Z,55.4
2018-11-12T04:55:02.442Z,55.4
2018-11-12T04:55:52.198Z,55.4
2018-11-12T04:56:42.524Z,55.3
2018-11-12T04:57:32.009Z,55.3
2018-11-12T04:58:22.351Z,55.3
2018-11-12T04:59:12.368Z,55.3
2018-11-12T05:00:02.679Z,55.3
2018-11-12T05:00:52.767Z,55.3
2018-11-12T05:01:42.710Z,55.3
2018-11-12T05:02:32.157Z,55.3
2018-11-12T05:03:23.026Z,55.3
2018-11-12T05:04:12.546Z,55.3
2018-11-12T05:05:03.347Z,55.3
2018-11-12T05:05:52.799Z,55.3
2018-11-12T05:06:43.232Z,55.3
2018-11-12T05:07:33.023Z,55.3
2018-11-12T05:08:22.261Z,55.3
2018-11-12T05:09:12.799Z,55.2
2018-11-12T05:10:02.660Z,55.2
2018-11-12T05:10:53.004Z,55.2
2018-11-12T05:11:43.576Z,55.2
2018-11-12T05:12:33.911Z,55.2
2018-11-12T05:13:23.663Z,55.2
2018-11-12T05:14:13.169Z,55.1
2018-11-12T05:15:03.021Z,55.2
2018-11-12T05:15:53.858Z,55.1
2018-11-12T05:16:44.317Z,55.1
2018-11-12T05:17:33.686Z,55.1
2018-11-12T05:18:23.853Z,55.1
2018-11-12T05:19:13.805Z,55.1
2018-11-12T05:20:03.962Z,55.1
2018-11-12T05:20:54.215Z,55.1
2018-11-12T05:21:44.552Z,55.1
2018-11-12T05:22:33.491Z,55.1
2018-11-12T05:23:24.411Z,55.1
2018-11-12T05:24:14.445Z,55.1
2018-11-12T05:25:03.905Z,55.1
2018-11-12T05:25:54.843Z,55
2018-11-12T05:26:44.697Z,55
2018-11-12T05:27:34.693Z,55
2018-11-12T05:28:24.724Z,55
2018-11-12T05:29:15.090Z,55
2018-11-12T05:30:04.539Z,55
2018-11-12T05:30:54.337Z,55
2018-11-12T05:31:44.495Z,54.9
2018-11-12T05:32:35.054Z,54.9
2018-11-12T05:33:24.563Z,54.9
2018-11-12T05:34:14.313Z,54.9
2018-11-12T05:35:05.215Z,54.9
2018-11-12T05:35:55.264Z,54.9
2018-11-12T05:36:45.583Z,54.9
2018-11-12T05:37:35.401Z,54.9
2018-11-12T05:38:25.709Z,54.9
2018-11-12T05:39:15.588Z,54.9
2018-11-12T05:40:05.550Z,54.9
2018-11-12T05:40:54.989Z,54.9
2018-11-12T05:41:45.948Z,54.8
2018-11-12T05:42:35.454Z,54.8
2018-11-12T05:43:25.811Z,54.8
2018-11-12T05:44:15.372Z,54.8
2018-11-12T05:45:06.893Z,54.8
2018-11-12T05:45:55.784Z,54.8
2018-11-12T05:46:45.771Z,54.8
2018-11-12T05:47:35.911Z,54.8
2018-11-12T05:48:25.913Z,54.8
2018-11-12T05:49:16.244Z,54.8
2018-11-12T05:50:06.024Z,54.8
2018-11-12T05:50:56.109Z,54.8
2018-11-12T05:51:46.364Z,54.8
2018-11-12T05:52:36.222Z,54.8
2018-11-12T05:53:26.529Z,54.7
2018-11-12T05:54:16.328Z,54.8
2018-11-12T05:55:05.984Z,54.7
2018-11-12T05:55:56.721Z,54.7
2018-11-12T05:56:47.066Z,54.7
2018-11-12T05:57:36.353Z,54.7
2018-11-12T05:58:26.501Z,54.7
2018-11-12T05:59:16.136Z,54.7
2018-11-12T06:00:06.508Z,54.7
2018-11-12T06:00:56.229Z,54.6
2018-11-12T06:01:46.927Z,54.6
2018-11-12T06:02:35.651Z,54.6
2018-11-12T06:03:26.461Z,54.6
2018-11-12T06:04:17.846Z,54.6
2018-11-12T06:05:06.457Z,54.6
2018-11-12T06:05:57.378Z,54.6
2018-11-12T06:06:47.232Z,54.6
2018-11-12T06:07:37.306Z,54.6
2018-11-12T06:08:27.907Z,54.6
2018-11-12T06:09:17.624Z,54.6
2018-11-12T06:10:06.951Z,54.6
2018-11-12T06:10:57.815Z,54.5
2018-11-12T06:11:47.562Z,54.5
2018-11-12T06:12:38.172Z,54.5
2018-11-12T06:13:27.472Z,54.5
2018-11-12T06:14:18.367Z,54.5
2018-11-12T06:15:07.297Z,54.4
2018-11-12T06:15:57.842Z,54.4
2018-11-12T06:16:47.442Z,54.4
2018-11-12T06:17:38.236Z,54.4
2018-11-12T06:18:27.748Z,54.4
2018-11-12T06:19:17.792Z,54.4
2018-11-12T06:20:08.173Z,54.4
2018-11-12T06:20:58.007Z,54.4
2018-11-12T06:21:48.529Z,54.4
2018-11-12T06:22:37.771Z,54.4
2018-11-12T06:23:28.052Z,54.4
2018-11-12T06:24:18.967Z,54.4
2018-11-12T06:25:08.297Z,54.4
2018-11-12T06:25:58.404Z,54.4
2018-11-12T06:26:48.637Z,54.4
2018-11-12T06:27:38.962Z,54.3
2018-11-12T06:28:29.013Z,54.4
2018-11-12T06:29:18.501Z,54.4
2018-11-12T06:30:08.677Z,54.3
2018-11-12T06:30:59.732Z,54.3
2018-11-12T06:31:49.061Z,54.3
2018-11-12T06:32:38.514Z,54.3
2018-11-12T06:33:28.795Z,54.3
2018-11-12T06:34:18.764Z,54.3
2018-11-12T06:35:09.026Z,54.3
2018-11-12T06:35:59.259Z,54.3
2018-11-12T06:36:50.500Z,54.3
2018-11-12T06:37:39.981Z,54.3
2018-11-12T06:38:28.950Z,54.3
2018-11-12T06:39:19.511Z,54.2
2018-11-12T06:40:09.668Z,54.2
2018-11-12T06:40:59.933Z,54.2
2018-11-12T06:41:50.043Z,54.2
2018-11-12T06:42:40.354Z,54.2
2018-11-12T06:43:30.128Z,54.2
2018-11-12T06:44:19.290Z,54.2
2018-11-12T06:45:09.518Z,54.2
2018-11-12T06:45:59.975Z,54.1
2018-11-12T06:46:50.610Z,54.1
2018-11-12T06:47:40.340Z,54.1
2018-11-12T06:48:29.488Z,54.1
2018-11-12T06:49:21.041Z,54.1
2018-11-12T06:50:09.813Z,54.1
2018-11-12T06:51:00.385Z,54.1
2018-11-12T06:51:50.695Z,54.1
2018-11-12T06:52:40.012Z,54.1
2018-11-12T06:53:32.028Z,54.1
2018-11-12T06:54:20.075Z,54.1
2018-11-12T06:55:10.432Z,54.1
2018-11-12T06:56:01.284Z,54.1
2018-11-12T06:56:50.997Z,54.1
2018-11-12T06:57:41.639Z,54
2018-11-12T06:58:31.104Z,54
2018-11-12T06:59:21.234Z,54
2018-11-12T07:00:11.285Z,54
2018-11-12T07:01:01.120Z,54
2018-11-12T07:01:51.710Z,54
2018-11-12T07:02:41.692Z,53.9
2018-11-12T07:03:30.669Z,53.9
2018-11-12T07:04:21.259Z,53.9
2018-11-12T07:05:10.738Z,53.9
2018-11-12T07:06:01.398Z,53.9
2018-11-12T07:06:52.350Z,53.9
2018-11-12T07:07:41.837Z,53.9
2018-11-12T07:08:31.272Z,53.9
2018-11-12T07:09:21.683Z,53.9
2018-11-12T07:10:11.534Z,53.9
2018-11-12T07:11:02.023Z,53.9
2018-11-12T07:11:51.848Z,53.9
2018-11-12T07:12:42.140Z,53.9
2018-11-12T07:13:32.231Z,53.9
2018-11-12T07:14:21.415Z,53.9
2018-11-12T07:15:12.058Z,53.8
2018-11-12T07:16:02.643Z,53.8
2018-11-12T07:16:52.265Z,53.8
2018-11-12T07:17:41.886Z,53.8
2018-11-12T07:18:31.830Z,53.8
2018-11-12T07:19:22.265Z,53.8
2018-11-12T07:20:12.734Z,53.8
2018-11-12T07:21:03.054Z,53.8
2018-11-12T07:21:52.052Z,53.8
2018-11-12T07:22:42.214Z,53.8
2018-11-12T07:23:33.214Z,53.8
2018-11-12T07:24:22.422Z,53.8
2018-11-12T07:25:13.311Z,53.8
2018-11-12T07:26:02.794Z,53.8
2018-11-12T07:26:52.985Z,53.7
2018-11-12T07:27:43.161Z,53.7
2018-11-12T07:28:33.394Z,53.7
2018-11-12T07:29:22.482Z,53.7
2018-11-12T07:30:13.120Z,53.7
2018-11-12T07:31:03.261Z,53.7
2018-11-12T07:31:53.840Z,53.7
2018-11-12T07:32:43.586Z,53.6
2018-11-12T07:33:33.559Z,53.6
2018-11-12T07:34:23.686Z,53.6
2018-11-12T07:35:13.196Z,53.6
2018-11-12T07:36:02.815Z,53.6
2018-11-12T07:36:53.891Z,53.6
2018-11-12T07:37:43.949Z,53.6
2018-11-12T07:38:33.796Z,53.6
2018-11-12T07:39:23.781Z,53.6
2018-11-12T07:40:14.119Z,53.6
2018-11-12T07:41:03.863Z,53.6
2018-11-12T07:41:54.540Z,53.6
2018-11-12T07:42:43.745Z,53.6
2018-11-12T07:43:34.621Z,53.5
2018-11-12T07:44:23.646Z,53.6
2018-11-12T07:45:13.995Z,53.5
2018-11-12T07:46:04.091Z,53.5
2018-11-12T07:46:53.756Z,53.5
2018-11-12T07:47:44.303Z,53.5
2018-11-12T07:48:34.428Z,53.5
2018-11-12T07:49:24.583Z,53.4
2018-11-12T07:50:14.290Z,53.5
2018-11-12T07:51:04.431Z,53.5
2018-11-12T07:51:54.670Z,53.4
2018-11-12T07:52:44.720Z,53.4
2018-11-12T07:53:34.901Z,53.4
2018-11-12T07:54:25.469Z,53.4
2018-11-12T07:55:14.893Z,53.4
2018-11-12T07:56:04.912Z,53.4
2018-11-12T07:56:55.013Z,53.4
2018-11-12T07:57:45.200Z,53.4
2018-11-12T07:58:34.375Z,53.4
2018-11-12T07:59:25.750Z,53.4
2018-11-12T08:00:15.308Z,53.4
2018-11-12T08:01:05.605Z,53.4
2018-11-12T08:01:55.412Z,53.4
2018-11-12T08:02:44.978Z,53.3
2018-11-12T08:03:51.696Z,53.3
2018-11-12T08:04:25.847Z,53.3
2018-11-12T08:05:15.592Z,53.3
2018-11-12T08:06:05.394Z,53.3
2018-11-12T08:06:56.012Z,53.3
2018-11-12T08:07:45.832Z,53.3
2018-11-12T08:08:36.078Z,53.3
2018-11-12T08:09:26.530Z,53.3
2018-11-12T08:10:16.287Z,53.3
2018-11-12T08:11:05.875Z,53.3
2018-11-12T08:11:56.872Z,53.3
2018-11-12T08:12:45.698Z,53.3
2018-11-12T08:13:35.637Z,53.3
2018-11-12T08:14:27.262Z,53.2
2018-11-12T08:15:16.469Z,53.2
2018-11-12T08:16:05.896Z,53.2
2018-11-12T08:16:56.270Z,53.2
2018-11-12T08:17:48.496Z,53.2
2018-11-12T08:18:35.962Z,53.2
2018-11-12T08:19:25.388Z,53.2
2018-11-12T08:20:16.719Z,53.2
2018-11-12T08:21:06.269Z,53.2
2018-11-12T08:21:56.598Z,53.1
2018-11-12T08:22:47.279Z,53.1
2018-11-12T08:23:37.207Z,53.1
2018-11-12T08:24:28.171Z,53.1
2018-11-12T08:25:17.464Z,53.1
2018-11-12T08:26:07.139Z,53.1
2018-11-12T08:26:57.321Z,53.1
2018-11-12T08:27:46.724Z,53.1
2018-11-12T08:28:36.813Z,53.1
2018-11-12T08:29:27.356Z,53.1
2018-11-12T08:30:17.733Z,53.1
2018-11-12T08:31:07.756Z,53.1
2018-11-12T08:31:57.873Z,53.1
2018-11-12T08:32:47.236Z,53
2018-11-12T08:33:37.355Z,53
2018-11-12T08:34:27.456Z,53
2018-11-12T08:35:17.593Z,53
2018-11-12T08:36:07.608Z,53
2018-11-12T08:36:57.706Z,53
2018-11-12T08:37:48.062Z,53
2018-11-12T08:38:37.516Z,53
2018-11-12T08:39:29.045Z,52.9
2018-11-12T08:40:18.110Z,52.9
2018-11-12T08:41:08.326Z,52.9
2018-11-12T08:41:57.325Z,52.9
2018-11-12T08:42:49.180Z,52.9
2018-11-12T08:43:38.785Z,52.9
2018-11-12T08:44:27.150Z,52.9
2018-11-12T08:45:18.322Z,52.9
2018-11-12T08:46:09.012Z,52.9
2018-11-12T08:46:58.314Z,52.9
2018-11-12T08:47:48.165Z,52.9
2018-11-12T08:48:39.160Z,52.9
2018-11-12T08:49:29.964Z,52.9
2018-11-12T08:50:18.867Z,52.9
2018-11-12T08:51:09.047Z,52.9
2018-11-12T08:51:58.321Z,52.8
2018-11-12T08:52:48.850Z,52.8
2018-11-12T09:08:42.101Z,52.7
2018-11-12T09:09:32.467Z,52.7
2018-11-12T09:10:22.897Z,52.7
2018-11-12T09:11:12.757Z,52.6
2018-11-12T09:12:02.641Z,52.6
2018-11-12T09:12:53.011Z,52.6
2018-11-12T09:13:45.248Z,52.6
2018-11-12T09:14:33.023Z,52.6
2018-11-12T09:15:21.828Z,52.6
2018-11-12T09:16:12.869Z,52.6
2018-11-12T09:17:02.338Z,52.6
2018-11-12T09:17:53.363Z,52.6
2018-11-12T09:18:42.543Z,52.6
2018-11-12T09:19:32.928Z,52.6
2018-11-12T09:20:23.349Z,52.6
2018-11-12T09:21:12.728Z,52.6
2018-11-12T09:22:02.900Z,52.5
2018-11-12T09:22:53.709Z,52.5
2018-11-12T09:23:43.798Z,52.4
2018-11-12T09:24:33.503Z,52.4
2018-11-12T09:29:35.057Z,52.4
2018-11-12T09:30:23.662Z,52.4
2018-11-12T09:31:17.807Z,52.5
2018-11-12T09:32:04.189Z,52.5
2018-11-12T09:32:54.531Z,52.6
2018-11-12T09:33:43.784Z,52.6
2018-11-12T09:34:34.930Z,52.6
2018-11-12T09:35:24.515Z,52.7
2018-11-12T09:36:14.586Z,52.7
2018-11-12T09:37:04.162Z,52.8
2018-11-12T09:37:55.014Z,52.8
2018-11-12T09:38:45.429Z,52.9
2018-11-12T09:39:35.090Z,52.9
2018-11-12T09:40:24.137Z,52.9
2018-11-12T09:41:14.419Z,53
2018-11-12T09:42:05.581Z,53.1
2018-11-12T09:42:55.291Z,53.1
2018-11-12T09:43:45.100Z,53.1
2018-11-12T09:44:35.225Z,53.2
2018-11-12T09:45:25.571Z,53.3
2018-11-12T09:46:15.639Z,53.3
2018-11-12T09:47:04.318Z,53.4
2018-11-12T09:47:56.517Z,53.4
2018-11-12T09:48:45.681Z,53.5
2018-11-12T09:49:35.641Z,53.5
2018-11-12T09:50:25.588Z,53.6
2018-11-12T09:51:14.966Z,53.7
2018-11-12T09:52:04.969Z,53.7
2018-11-12T09:52:55.521Z,53.8
2018-11-12T09:53:46.692Z,53.8
2018-11-12T09:54:38.316Z,53.9
2018-11-12T09:55:25.708Z,53.9
2018-11-12T09:56:16.564Z,53.9
2018-11-12T09:57:06.396Z,54
2018-11-12T09:57:56.438Z,54.1
2018-11-12T09:58:45.788Z,54.1
2018-11-12T09:59:36.263Z,54.1
2018-11-12T10:00:28.465Z,54.2
2018-11-12T10:01:19.008Z,54.3
2018-11-12T10:02:10.810Z,54.4
2018-11-12T10:03:02.617Z,54.4
2018-11-12T10:03:58.237Z,54.5
2018-11-12T10:04:41.772Z,54.6
2018-11-12T10:05:29.574Z,54.6
2018-11-12T10:06:28.597Z,54.6
2018-11-12T10:07:24.982Z,54.8
2018-11-12T10:08:04.016Z,54.8
2018-11-12T10:08:56.207Z,54.9
2018-11-12T10:09:54.303Z,54.9
2018-11-12T10:10:56.159Z,55
2018-11-12T10:11:53.775Z,55.1
2018-11-12T10:12:53.408Z,55.1
2018-11-12T10:13:55.252Z,55.2
2018-11-12T10:14:56.639Z,55.3
2018-11-12T10:15:40.484Z,55.4
2018-11-12T10:16:57.927Z,55.4
2018-11-12T10:18:06.210Z,55.4
2018-11-12T10:18:30.110Z,55.5
2018-11-12T10:19:20.082Z,55.5
2018-11-12T10:20:11.110Z,55.6
2018-11-12T10:21:00.303Z,55.6
2018-11-12T10:21:50.849Z,55.7
2018-11-12T10:22:40.391Z,55.8
2018-11-12T10:23:30.679Z,55.8
2018-11-12T10:24:20.436Z,55.8
2018-11-12T10:25:10.815Z,55.9
2018-11-12T10:26:00.551Z,56
2018-11-12T10:26:50.884Z,56
2018-11-12T10:27:40.703Z,56.1
2018-11-12T10:28:30.849Z,56.1
2018-11-12T10:29:20.400Z,56.2
2018-11-12T10:30:11.116Z,56.3
2018-11-12T10:31:00.806Z,56.3
2018-11-12T10:31:51.084Z,56.4
2018-11-12T10:32:41.591Z,56.4
2018-11-12T10:33:31.516Z,56.5
2018-11-12T10:34:20.956Z,56.5
2018-11-12T10:35:11.626Z,56.6
2018-11-12T10:36:01.076Z,56.6
2018-11-12T10:36:50.871Z,56.7
2018-11-12T10:37:41.887Z,56.8
2018-11-12T10:38:31.561Z,56.8
2018-11-12T10:39:21.815Z,56.9
2018-11-12T10:40:11.849Z,56.9
2018-11-12T10:41:01.747Z,56.9
2018-11-12T10:41:52.353Z,57
2018-11-12T10:42:42.750Z,57.1
2018-11-12T10:43:32.343Z,57.1
2018-11-12T10:44:21.663Z,57.1
2018-11-12T10:45:12.242Z,57.2
2018-11-12T10:46:02.355Z,57.3
2018-11-12T10:46:52.663Z,57.3
2018-11-12T10:47:42.559Z,57.4
2018-11-12T10:48:32.485Z,57.4
2018-11-12T10:49:22.843Z,57.5
2018-11-12T10:50:12.376Z,57.5
2018-11-12T10:51:09.051Z,57.6
2018-11-12T10:51:53.263Z,57.6
2018-11-12T10:52:42.770Z,57.6
2018-11-12T10:53:33.311Z,57.7
2018-11-12T10:55:14.723Z,57.8
2018-11-12T10:56:05.494Z,57.9
2018-11-12T10:56:52.587Z,57.9
2018-11-12T10:57:43.415Z,57.9
2018-11-12T10:58:32.822Z,58
2018-11-12T10:59:22.714Z,58.1
2018-11-12T11:00:14.102Z,58.1
2018-11-12T11:01:02.803Z,58.1
2018-11-12T11:01:53.720Z,58.2
2018-11-12T11:02:43.023Z,58.2
2018-11-12T11:03:33.569Z,58.3
2018-11-12T11:04:23.924Z,58.3
2018-11-12T11:05:13.117Z,58.4
2018-11-12T11:06:02.986Z,58.4
2018-11-12T11:06:54.089Z,58.5
2018-11-12T11:09:23.676Z,58.6
2018-11-12T11:10:13.462Z,58.7
2018-11-12T11:11:04.121Z,58.7
2018-11-12T11:11:53.981Z,58.8
2018-11-12T11:12:43.946Z,58.8
2018-11-12T11:13:34.612Z,58.8
2018-11-12T11:14:24.196Z,58.9
2018-11-12T11:15:14.422Z,58.9
2018-11-12T11:16:04.047Z,58.9
2018-11-12T11:16:54.088Z,59
2018-11-12T11:17:44.401Z,59.1
2018-11-12T11:18:34.688Z,59.1
2018-11-12T11:19:24.789Z,59.1
2018-11-12T11:20:14.498Z,59.2
2018-11-12T11:21:05.593Z,59.2
2018-11-12T11:21:55.194Z,59.3
2018-11-12T11:22:44.660Z,59.3
2018-11-12T11:23:35.296Z,59.4
2018-11-12T11:24:25.068Z,59.4
2018-11-12T11:25:14.835Z,59.4
2018-11-12T11:26:05.523Z,59.4
2018-11-12T11:26:55.521Z,59.5
2018-11-12T11:27:44.896Z,59.6
2018-11-12T11:28:35.642Z,59.6
2018-11-12T11:29:25.681Z,59.6
2018-11-12T11:30:15.084Z,59.6
2018-11-12T11:31:06.358Z,59.7
2018-11-12T11:31:54.717Z,59.8
2018-11-12T11:32:45.715Z,59.8
2018-11-12T11:33:35.520Z,59.8
2018-11-12T11:34:25.843Z,59.8
2018-11-12T11:35:15.330Z,59.9
2018-11-12T11:36:05.242Z,59.9
2018-11-12T11:36:55.815Z,59.9
2018-11-12T11:37:46.167Z,59.9
2018-11-12T11:38:35.818Z,60
2018-11-12T11:39:25.603Z,60
2018-11-12T11:40:16.948Z,60.1
2018-11-12T11:41:06.222Z,60.1
2018-11-12T11:41:55.759Z,60.1
2018-11-12T11:42:46.125Z,60.1
2018-11-12T11:43:36.170Z,60.2
2018-11-12T11:44:25.750Z,60.3
2018-11-12T11:45:16.305Z,60.3
2018-11-12T11:46:06.227Z,60.3
2018-11-12T11:46:56.977Z,60.3
2018-11-12T11:47:48.672Z,60.4
2018-11-12T11:48:36.955Z,60.4
2018-11-12T11:49:26.333Z,60.4
2018-11-12T11:50:17.127Z,60.4
2018-11-12T11:51:07.015Z,60.5
2018-11-12T11:51:56.601Z,60.6
2018-11-12T11:52:46.529Z,60.6
2018-11-12T11:53:36.966Z,60.6
2018-11-12T11:54:26.675Z,60.6
2018-11-12T11:55:16.726Z,60.6
2018-11-12T11:56:07.519Z,60.6
2018-11-12T11:56:57.135Z,60.7
2018-11-12T11:57:48.485Z,60.7
2018-11-12T11:58:36.860Z,60.8
2018-11-12T11:59:26.829Z,60.8
2018-11-12T12:00:17.214Z,60.8
2018-11-12T12:01:08.799Z,60.8
2018-11-12T12:01:58.126Z,60.8
2018-11-12T12:02:47.733Z,60.9
2018-11-12T12:03:37.415Z,60.9
2018-11-12T12:04:28.096Z,60.9
2018-11-12T12:05:18.570Z,60.9
2018-11-12T12:06:08.014Z,60.9
2018-11-12T12:06:57.941Z,61
2018-11-12T12:07:47.631Z,61
2018-11-12T12:08:38.068Z,61.1
2018-11-12T12:09:28.659Z,61.1
2018-11-12T12:10:19.217Z,61.1
2018-11-12T12:11:08.891Z,61.1
2018-11-12T12:11:58.678Z,61.1
2018-11-12T12:12:49.361Z,61.1
2018-11-12T12:13:38.148Z,61.1
2018-11-12T12:14:28.923Z,61.2
2018-11-12T12:15:18.686Z,61.2
2018-11-12T12:16:09.358Z,61.2
2018-11-12T12:16:58.464Z,61.2
2018-11-12T12:17:48.918Z,61.3
2018-11-12T12:18:39.025Z,61.3
2018-11-12T12:19:29.028Z,61.3
2018-11-12T12:20:18.786Z,61.3
2018-11-12T12:21:09.374Z,61.3